Time;durP1;ratioP1;P1;durP2;ratioP2;P2;SDS_P1;SDS_P2;PMS_P1;PMS_P2;Temp;Humidity;BMP_temperature;BMP_pressure;BME280_temperature;BME280_humidity;BME280_pressure;Samples;Min_cycle;Max_cycle;Signal;HPM_P1;HPM_P2
2021/06/26 00:02:31;;;;;;;17.83;13.00;;;26.80;56.70;;;;;;6124505;28;83319;-66
2021/06/26 00:05:31;;;;;;;24.45;14.25;;;26.90;56.70;;;;;;6128003;28;84203;-66
2021/06/26 00:08:32;;;;;;;22.95;15.63;;;26.90;56.90;;;;;;6125785;28;83138;-66
2021/06/26 00:11:32;;;;;;;22.15;15.73;;;26.80;56.90;;;;;;6129300;28;83751;-65
2021/06/26 00:14:33;;;;;;;26.73;16.42;;;26.80;57.00;;;;;;6127710;28;82915;-65
2021/06/26 00:17:33;;;;;;;19.13;15.48;;;26.80;57.00;;;;;;6126432;28;83449;-67
2021/06/26 00:20:34;;;;;;;24.23;16.60;;;26.70;57.10;;;;;;6125782;28;83368;-66
2021/06/26 00:23:34;;;;;;;22.95;16.88;;;26.70;57.20;;;;;;6126206;28;84193;-66
2021/06/26 00:26:35;;;;;;;24.95;17.02;;;26.70;57.40;;;;;;6127337;28;84365;-66
2021/06/26 00:29:35;;;;;;;22.42;16.90;;;26.60;57.40;;;;;;6128734;28;83243;-66
2021/06/26 00:32:36;;;;;;;20.80;14.38;;;26.60;57.50;;;;;;6135510;28;83128;-66
2021/06/26 00:35:36;;;;;;;18.42;14.45;;;26.60;57.40;;;;;;6130256;28;83731;-67
2021/06/26 00:38:37;;;;;;;21.35;15.27;;;26.70;57.40;;;;;;6123150;28;82912;-66
2021/06/26 00:41:37;;;;;;;20.55;14.90;;;26.70;57.40;;;;;;6124044;28;83599;-67
2021/06/26 00:44:38;;;;;;;21.60;14.60;;;26.70;57.60;;;;;;6120905;28;83122;-66
2021/06/26 00:47:39;;;;;;;21.17;14.55;;;26.70;57.60;;;;;;6129297;28;84641;-67
2021/06/26 00:50:39;;;;;;;21.38;14.85;;;26.70;57.50;;;;;;6123841;28;83623;-66
2021/06/26 00:53:40;;;;;;;18.40;14.30;;;26.70;57.50;;;;;;6126835;28;84265;-66
2021/06/26 00:56:40;;;;;;;18.88;14.30;;;26.70;57.40;;;;;;6136094;28;83737;-66
2021/06/26 00:59:40;;;;;;;17.15;14.57;;;26.80;57.70;;;;;;6128845;28;85813;-66
2021/06/26 01:02:41;;;;;;;18.70;14.23;;;26.70;57.50;;;;;;6129832;28;84708;-66
2021/06/26 01:05:42;;;;;;;16.08;13.02;;;26.70;57.40;;;;;;6125588;28;83116;-66
2021/06/26 01:08:42;;;;;;;21.10;13.60;;;26.70;57.30;;;;;;6125081;28;82799;-66
2021/06/26 01:11:42;;;;;;;16.83;13.02;;;26.70;57.20;;;;;;6114798;28;82931;-66
2021/06/26 01:14:43;;;;;;;17.35;13.05;;;26.80;57.40;;;;;;6118529;28;84205;-65
2021/06/26 01:17:44;;;;;;;14.73;12.40;;;26.70;57.30;;;;;;6130659;28;83162;-67
2021/06/26 01:20:44;;;;;;;19.42;12.98;;;26.80;57.40;;;;;;6134082;28;83090;-67
2021/06/26 01:23:46;;;;;;;18.92;14.45;;;26.80;57.30;;;;;;6122202;28;83942;-67
2021/06/26 01:26:47;;;;;;;18.80;13.23;;;26.70;57.30;;;;;;6127343;28;84087;-67
2021/06/26 01:29:47;;;;;;;19.75;13.20;;;26.70;57.40;;;;;;6133756;28;83156;-67
2021/06/26 01:32:48;;;;;;;19.40;13.10;;;26.70;57.30;;;;;;6124138;28;83230;-66
2021/06/26 01:35:49;;;;;;;17.33;13.35;;;26.70;57.40;;;;;;6123796;28;83041;-67
2021/06/26 01:38:49;;;;;;;19.17;12.38;;;26.70;57.80;;;;;;6122799;28;84793;-67
2021/06/26 01:41:50;;;;;;;15.45;12.27;;;26.70;57.00;;;;;;6134098;28;83501;-67
2021/06/26 01:44:50;;;;;;;15.27;11.82;;;26.70;57.10;;;;;;6116809;28;83094;-67
2021/06/26 01:47:51;;;;;;;18.02;13.07;;;26.70;57.20;;;;;;6131249;28;83802;-67
2021/06/26 01:50:51;;;;;;;15.88;12.57;;;26.60;57.00;;;;;;6129610;28;84219;-66
2021/06/26 01:53:52;;;;;;;15.77;12.00;;;26.60;57.10;;;;;;6132508;28;86176;-66
2021/06/26 01:56:52;;;;;;;17.13;11.02;;;26.70;57.00;;;;;;6127582;28;83826;-66
2021/06/26 01:59:53;;;;;;;20.45;11.57;;;26.70;56.60;;;;;;6128387;28;84504;-67
2021/06/26 02:02:53;;;;;;;14.68;10.60;;;26.70;56.80;;;;;;6129865;28;83197;-68
2021/06/26 02:05:54;;;;;;;9.95;8.68;;;26.70;56.60;;;;;;6127777;28;82942;-67
2021/06/26 02:08:54;;;;;;;13.35;8.82;;;26.70;56.50;;;;;;6128075;28;81746;-67
2021/06/26 02:11:55;;;;;;;9.93;8.35;;;26.70;55.80;;;;;;6125785;28;80355;-67
2021/06/26 02:14:55;;;;;;;10.43;8.93;;;26.70;55.80;;;;;;6130181;28;81005;-67
2021/06/26 02:17:56;;;;;;;11.43;9.30;;;26.70;55.70;;;;;;6138932;28;86341;-67
2021/06/26 02:20:56;;;;;;;13.23;9.90;;;26.60;55.80;;;;;;6137199;28;81149;-67
2021/06/26 02:23:57;;;;;;;11.95;10.07;;;26.70;55.90;;;;;;6136563;28;80396;-67
2021/06/26 02:26:57;;;;;;;10.73;9.63;;;26.70;56.00;;;;;;6121292;28;85369;-67
2021/06/26 02:29:58;;;;;;;11.68;9.00;;;26.60;56.00;;;;;;6137137;28;81593;-67
2021/06/26 02:32:58;;;;;;;10.90;8.95;;;26.60;56.00;;;;;;6141300;28;81071;-67
2021/06/26 02:35:59;;;;;;;11.07;8.50;;;26.70;56.10;;;;;;6140650;28;81152;-67
2021/06/26 02:38:59;;;;;;;8.73;7.82;;;26.60;55.90;;;;;;6136054;28;80767;-66
2021/06/26 02:42:00;;;;;;;11.23;7.20;;;26.60;55.70;;;;;;6134313;28;80097;-66
2021/06/26 02:45:00;;;;;;;12.98;8.30;;;26.70;55.60;;;;;;6134142;28;81436;-66
2021/06/26 02:48:01;;;;;;;7.70;6.05;;;26.70;55.40;;;;;;6118950;28;86600;-66
2021/06/26 02:51:01;;;;;;;6.75;6.05;;;26.70;55.20;;;;;;6136413;28;81860;-67
2021/06/26 02:54:02;;;;;;;7.13;6.00;;;26.70;55.00;;;;;;6135730;28;80706;-67
2021/06/26 02:57:03;;;;;;;6.90;6.20;;;26.70;54.60;;;;;;6161023;28;80494;-66
2021/06/26 03:00:03;;;;;;;9.95;6.60;;;26.70;54.80;;;;;;6135379;28;80618;-66
2021/06/26 03:03:04;;;;;;;6.93;6.22;;;26.70;54.90;;;;;;6133274;28;83141;-66
2021/06/26 03:06:04;;;;;;;5.80;5.20;;;26.70;55.40;;;;;;6133540;28;80518;-67
2021/06/26 03:09:05;;;;;;;7.05;6.30;;;26.70;54.70;;;;;;6128940;28;81239;-67
2021/06/26 03:12:05;;;;;;;8.95;5.85;;;26.70;55.10;;;;;;6125710;28;80598;-67
2021/06/26 03:15:06;;;;;;;7.47;5.22;;;26.70;54.90;;;;;;6135336;28;81065;-67
2021/06/26 03:18:06;;;;;;;9.27;5.88;;;26.70;54.80;;;;;;6134488;28;80305;-67
2021/06/26 03:21:07;;;;;;;6.70;5.82;;;26.60;54.70;;;;;;6115681;28;80277;-67
2021/06/26 03:24:07;;;;;;;8.50;5.93;;;26.70;54.80;;;;;;6107114;28;83197;-66
2021/06/26 03:27:08;;;;;;;6.10;5.50;;;26.70;54.50;;;;;;6105763;28;80261;-66
2021/06/26 03:30:08;;;;;;;5.95;5.32;;;26.70;54.50;;;;;;6128306;28;81511;-66
2021/06/26 03:33:09;;;;;;;8.35;5.93;;;26.70;54.20;;;;;;6123390;28;80836;-66
2021/06/26 03:36:10;;;;;;;7.80;5.93;;;26.70;54.20;;;;;;6128787;28;80798;-66
2021/06/26 03:39:11;;;;;;;10.18;5.53;;;26.70;54.10;;;;;;6129783;28;80570;-66
2021/06/26 03:42:11;;;;;;;7.85;6.72;;;26.70;54.00;;;;;;6117195;28;80355;-66
2021/06/26 03:45:12;;;;;;;6.00;5.40;;;26.70;54.00;;;;;;6129266;28;80221;-66
2021/06/26 03:48:12;;;;;;;7.68;5.47;;;26.70;53.70;;;;;;6130839;28;81176;-66
2021/06/26 03:51:13;;;;;;;6.05;5.35;;;26.70;54.20;;;;;;6128246;28;80426;-66
2021/06/26 03:54:13;;;;;;;7.10;5.95;;;26.70;53.80;;;;;;6131548;28;80549;-66
2021/06/26 03:57:14;;;;;;;6.47;5.32;;;26.60;53.50;;;;;;6132720;28;82825;-66
2021/06/26 04:00:14;;;;;;;7.53;5.63;;;26.60;53.40;;;;;;6133092;28;80984;-66
2021/06/26 04:03:16;;;;;;;6.70;5.68;;;26.60;53.50;;;;;;6125782;28;80909;-65
2021/06/26 04:06:16;;;;;;;6.65;5.47;;;26.60;53.60;;;;;;6129831;28;81367;-66
2021/06/26 04:09:17;;;;;;;7.18;5.72;;;26.60;53.60;;;;;;6126424;28;80232;-64
2021/06/26 04:12:17;;;;;;;5.50;4.45;;;26.60;53.70;;;;;;6131435;28;80508;-65
2021/06/26 04:15:18;;;;;;;6.20;5.32;;;26.60;54.40;;;;;;6129530;28;80614;-66
2021/06/26 04:18:18;;;;;;;8.50;5.10;;;26.60;54.20;;;;;;6126812;28;80808;-66
2021/06/26 04:21:19;;;;;;;8.52;5.18;;;26.60;53.90;;;;;;6126996;28;80567;-64
2021/06/26 04:24:19;;;;;;;6.78;5.70;;;26.60;53.80;;;;;;6126941;28;83292;-65
2021/06/26 04:27:20;;;;;;;7.95;6.32;;;26.60;54.20;;;;;;6129168;28;81048;-64
2021/06/26 04:30:20;;;;;;;11.07;5.90;;;26.60;53.90;;;;;;6121145;28;80834;-68
2021/06/26 04:33:21;;;;;;;6.47;4.80;;;26.60;54.20;;;;;;6131825;28;83750;-68
2021/06/26 04:36:22;;;;;;;14.48;5.88;;;26.70;54.30;;;;;;6133963;28;80370;-66
2021/06/26 04:39:22;;;;;;;8.95;5.70;;;26.70;54.50;;;;;;6127745;28;80480;-67
2021/06/26 04:42:23;;;;;;;11.98;6.03;;;26.70;54.30;;;;;;6122117;28;80458;-67
2021/06/26 04:45:23;;;;;;;8.52;6.50;;;26.70;54.20;;;;;;6124018;28;81368;-68
2021/06/26 04:48:30;;;;;;;9.15;5.60;;;26.70;54.30;;;;;;6132272;28;80274;-69
2021/06/26 04:51:32;;;;;;;9.43;5.30;;;26.70;54.00;;;;;;6133036;28;81129;-67
2021/06/26 04:54:33;;;;;;;12.48;6.15;;;26.70;54.00;;;;;;6126814;28;80560;-67
2021/06/26 04:57:33;;;;;;;8.07;5.68;;;26.70;53.90;;;;;;6122739;28;80296;-67
2021/06/26 05:00:35;;;;;;;7.97;5.93;;;26.70;53.30;;;;;;6131915;28;80009;-68
2021/06/26 05:03:38;;;;;;;8.00;5.25;;;26.70;53.30;;;;;;6136136;28;80700;-68
2021/06/26 05:06:39;;;;;;;8.60;5.60;;;26.70;53.10;;;;;;6133613;28;80737;-66
2021/06/26 05:09:40;;;;;;;8.05;5.78;;;26.70;53.20;;;;;;6134832;28;80835;-67
2021/06/26 05:12:40;;;;;;;9.27;5.03;;;26.70;53.40;;;;;;6130068;28;80740;-67
2021/06/26 05:15:44;;;;;;;6.28;5.57;;;26.80;53.60;;;;;;6134105;28;80592;-66
2021/06/26 05:18:44;;;;;;;7.10;5.20;;;26.80;53.50;;;;;;6129765;28;80234;-68
2021/06/26 05:21:45;;;;;;;7.88;5.53;;;26.80;53.70;;;;;;6128172;28;80580;-67
2021/06/26 05:24:45;;;;;;;9.00;4.55;;;26.80;53.10;;;;;;6127279;28;81406;-69
2021/06/26 05:27:46;;;;;;;8.27;5.43;;;26.80;52.80;;;;;;6135563;28;81605;-68
2021/06/26 05:30:47;;;;;;;6.60;4.50;;;26.80;52.90;;;;;;6134259;28;81470;-66
2021/06/26 05:33:47;;;;;;;10.25;5.18;;;26.80;52.70;;;;;;6136528;28;80475;-69
2021/06/26 05:36:48;;;;;;;6.20;5.45;;;26.90;52.70;;;;;;6137418;28;81966;-70
2021/06/26 05:39:48;;;;;;;7.45;5.03;;;26.90;52.60;;;;;;6131768;28;82522;-69
2021/06/26 05:42:49;;;;;;;6.10;4.88;;;26.90;52.70;;;;;;6137125;28;81482;-69
2021/06/26 05:45:49;;;;;;;7.70;5.53;;;26.90;52.70;;;;;;6133531;28;82999;-67
2021/06/26 05:48:50;;;;;;;6.15;5.53;;;26.90;52.60;;;;;;6135789;28;81667;-68
2021/06/26 05:51:50;;;;;;;15.00;7.25;;;26.90;52.60;;;;;;6132044;28;81072;-67
2021/06/26 05:54:51;;;;;;;12.50;6.78;;;26.90;52.70;;;;;;6136449;28;88147;-68
2021/06/26 05:57:52;;;;;;;8.93;5.70;;;26.90;53.30;;;;;;6131907;28;83006;-69
2021/06/26 06:00:52;;;;;;;7.43;5.47;;;26.90;53.10;;;;;;6136060;28;80584;-68
2021/06/26 06:03:53;;;;;;;6.68;5.85;;;26.90;53.20;;;;;;6132892;28;81371;-68
2021/06/26 06:06:53;;;;;;;10.77;5.07;;;26.90;53.40;;;;;;6125999;28;81837;-69
2021/06/26 06:09:54;;;;;;;7.22;5.75;;;26.80;53.50;;;;;;6136154;28;81450;-70
2021/06/26 06:12:54;;;;;;;7.90;5.47;;;26.80;53.50;;;;;;6134236;28;81443;-66
2021/06/26 06:15:55;;;;;;;8.25;4.63;;;26.80;53.60;;;;;;6133436;28;81962;-69
2021/06/26 06:18:56;;;;;;;10.10;5.03;;;26.80;54.00;;;;;;6126318;28;81333;-66
2021/06/26 06:21:56;;;;;;;5.82;4.95;;;26.80;53.60;;;;;;6134238;28;80551;-66
2021/06/26 06:24:57;;;;;;;9.35;5.05;;;26.80;54.10;;;;;;6133515;28;80500;-66
2021/06/26 06:27:57;;;;;;;5.45;4.50;;;26.80;53.80;;;;;;6132947;28;80399;-65
2021/06/26 06:30:58;;;;;;;7.18;5.82;;;26.90;54.20;;;;;;6131452;28;80844;-65
2021/06/26 06:33:58;;;;;;;7.22;5.10;;;26.90;54.00;;;;;;6129587;28;81902;-66
2021/06/26 06:36:59;;;;;;;10.05;5.15;;;26.80;54.00;;;;;;6122429;28;80699;-67
2021/06/26 06:39:59;;;;;;;7.57;5.65;;;26.90;53.30;;;;;;6131667;28;81103;-68
2021/06/26 06:43:00;;;;;;;12.32;5.32;;;26.90;53.60;;;;;;6117790;28;80404;-68
2021/06/26 06:46:03;;;;;;;8.32;4.93;;;26.90;53.20;;;;;;6117337;28;82319;-67
2021/06/26 06:49:04;;;;;;;14.25;4.75;;;26.80;53.60;;;;;;6127574;28;82220;-66
2021/06/26 06:52:04;;;;;;;10.88;4.88;;;26.80;53.40;;;;;;6132962;28;80558;-66
2021/06/26 06:55:05;;;;;;;7.13;4.50;;;26.90;53.30;;;;;;6128159;28;80646;-65
2021/06/26 06:58:05;;;;;;;5.88;4.30;;;26.90;53.60;;;;;;6129296;28;83029;-66
2021/06/26 07:01:06;;;;;;;6.38;4.32;;;26.90;53.90;;;;;;6130365;28;81084;-65
2021/06/26 07:04:06;;;;;;;5.72;4.35;;;26.90;54.30;;;;;;6132159;28;86294;-66
2021/06/26 07:07:07;;;;;;;14.90;6.28;;;26.90;54.60;;;;;;6134720;28;80432;-65
2021/06/26 07:10:07;;;;;;;91.50;33.95;;;26.90;54.40;;;;;;6130685;28;81082;-65
2021/06/26 07:13:08;;;;;;;130.90;47.88;;;26.90;54.90;;;;;;6130795;28;82770;-67
2021/06/26 07:16:08;;;;;;;122.07;47.38;;;26.90;54.80;;;;;;6106183;28;83609;-67
2021/06/26 07:19:09;;;;;;;103.57;38.42;;;26.90;54.80;;;;;;6098950;28;83273;-67
2021/06/26 07:22:10;;;;;;;87.65;35.33;;;26.90;54.20;;;;;;6132390;28;84154;-67
2021/06/26 07:25:10;;;;;;;84.97;32.90;;;26.90;53.80;;;;;;6124966;28;86292;-67
2021/06/26 07:28:11;;;;;;;53.10;21.50;;;26.90;53.80;;;;;;6129835;28;84600;-67
2021/06/26 07:31:11;;;;;;;45.13;16.95;;;26.90;53.40;;;;;;6134499;28;83472;-66
2021/06/26 07:34:12;;;;;;;31.75;13.85;;;26.90;53.40;;;;;;6130339;28;83958;-68
2021/06/26 07:37:12;;;;;;;27.73;12.65;;;26.90;53.40;;;;;;6130595;28;82935;-68
2021/06/26 07:40:14;;;;;;;31.95;12.90;;;26.90;53.40;;;;;;6132720;28;83350;-67
2021/06/26 07:43:14;;;;;;;22.52;9.50;;;26.90;53.30;;;;;;6131491;28;82868;-66
2021/06/26 07:46:15;;;;;;;28.85;8.55;;;26.90;53.30;;;;;;6134496;28;83045;-67
2021/06/26 07:49:16;;;;;;;16.73;7.22;;;26.90;53.40;;;;;;6128381;28;81039;-67
2021/06/26 07:52:16;;;;;;;20.20;7.90;;;26.90;53.50;;;;;;6134492;28;81060;-67
2021/06/26 07:55:17;;;;;;;13.02;7.30;;;26.90;54.00;;;;;;6116378;28;81311;-67
2021/06/26 07:58:17;;;;;;;14.13;6.85;;;26.90;53.50;;;;;;6116023;28;80294;-67
2021/06/26 08:01:18;;;;;;;10.82;6.32;;;26.90;53.80;;;;;;6135182;28;81378;-67
2021/06/26 08:04:19;;;;;;;11.82;5.68;;;26.90;53.80;;;;;;6133537;28;81686;-67
2021/06/26 08:07:20;;;;;;;13.00;6.47;;;26.90;53.70;;;;;;6131759;28;80711;-67
2021/06/26 08:10:20;;;;;;;10.63;5.60;;;26.90;53.90;;;;;;6127830;28;80688;-66
2021/06/26 08:13:22;;;;;;;10.07;6.22;;;26.90;54.10;;;;;;6123317;28;81057;-66
2021/06/26 08:16:23;;;;;;;8.40;5.32;;;26.90;53.90;;;;;;6103349;28;80400;-64
2021/06/26 08:19:23;;;;;;;7.63;5.13;;;27.00;53.70;;;;;;6106097;28;80542;-67
2021/06/26 08:22:24;;;;;;;9.82;5.20;;;26.90;53.70;;;;;;6133060;28;80818;-67
2021/06/26 08:25:24;;;;;;;14.18;4.72;;;27.00;53.70;;;;;;6133027;28;80205;-67
2021/06/26 08:28:25;;;;;;;12.18;5.38;;;27.00;53.80;;;;;;6124352;28;80959;-66
2021/06/26 08:31:25;;;;;;;6.10;4.85;;;27.00;53.90;;;;;;6132539;28;80751;-67
2021/06/26 08:34:27;;;;;;;9.90;5.13;;;27.10;54.10;;;;;;6130825;28;81111;-67
2021/06/26 08:37:27;;;;;;;11.50;5.22;;;27.10;54.60;;;;;;6134075;28;80540;-67
2021/06/26 08:40:28;;;;;;;18.05;5.70;;;27.10;55.10;;;;;;6138176;28;81566;-67
2021/06/26 08:43:28;;;;;;;9.40;5.97;;;27.10;55.90;;;;;;6141219;28;80938;-67
2021/06/26 08:46:29;;;;;;;17.33;6.38;;;27.10;55.80;;;;;;6136423;28;80140;-67
2021/06/26 08:49:29;;;;;;;20.45;5.95;;;27.10;55.80;;;;;;6128819;28;81345;-66
2021/06/26 08:52:30;;;;;;;10.75;6.13;;;27.10;56.10;;;;;;6135847;28;81743;-66
2021/06/26 08:55:30;;;;;;;7.53;4.57;;;27.10;55.80;;;;;;6126497;28;80585;-65
2021/06/26 08:58:31;;;;;;;12.18;4.97;;;27.10;56.10;;;;;;6136399;28;80513;-66
2021/06/26 09:01:31;;;;;;;9.40;5.35;;;27.10;56.30;;;;;;6130998;28;80366;-66
2021/06/26 09:04:32;;;;;;;9.20;4.88;;;27.10;56.30;;;;;;6130466;28;79979;-67
2021/06/26 09:07:32;;;;;;;10.30;5.35;;;27.20;56.20;;;;;;6133970;28;80844;-65
2021/06/26 09:10:33;;;;;;;10.82;4.90;;;27.20;56.50;;;;;;6132982;28;80552;-65
2021/06/26 09:13:33;;;;;;;6.47;5.43;;;27.20;56.20;;;;;;6134768;28;81025;-65
2021/06/26 09:16:34;;;;;;;12.73;5.13;;;27.30;55.90;;;;;;6129172;28;80312;-64
2021/06/26 09:19:36;;;;;;;8.15;5.60;;;27.30;55.90;;;;;;6135286;28;81515;-64
2021/06/26 09:22:37;;;;;;;7.00;4.90;;;27.30;55.50;;;;;;6136180;28;82310;-65
2021/06/26 09:25:38;;;;;;;7.25;5.47;;;27.20;55.50;;;;;;6137804;28;80380;-67
2021/06/26 09:28:39;;;;;;;15.75;5.20;;;27.20;55.70;;;;;;6137786;28;81730;-67
2021/06/26 09:31:39;;;;;;;12.82;6.50;;;27.20;55.90;;;;;;6152166;28;82270;-67
2021/06/26 09:34:40;;;;;;;9.65;5.55;;;27.20;56.00;;;;;;6134755;28;80367;-67
2021/06/26 09:37:40;;;;;;;6.13;5.20;;;27.20;55.80;;;;;;6137551;28;80694;-67
2021/06/26 09:40:41;;;;;;;11.27;6.32;;;27.30;56.50;;;;;;6137298;28;81535;-68
2021/06/26 09:43:41;;;;;;;6.25;5.18;;;27.30;56.80;;;;;;6123678;28;80594;-68
2021/06/26 09:46:42;;;;;;;7.18;5.40;;;27.30;56.40;;;;;;6136356;28;80628;-67
2021/06/26 09:49:42;;;;;;;13.27;5.97;;;27.30;58.00;;;;;;6131343;28;81367;-68
2021/06/26 09:52:43;;;;;;;11.32;6.50;;;27.30;58.60;;;;;;6135108;28;80332;-68
2021/06/26 09:55:46;;;;;;;11.95;7.28;;;27.30;56.60;;;;;;6134098;28;80803;-69
2021/06/26 09:58:47;;;;;;;8.60;6.47;;;27.30;56.10;;;;;;6134143;28;80615;-67
2021/06/26 10:01:47;;;;;;;15.00;7.70;;;27.30;56.90;;;;;;6131899;28;80391;-68
2021/06/26 10:04:48;;;;;;;9.82;7.18;;;27.20;56.00;;;;;;6138647;28;80476;-67
2021/06/26 10:07:49;;;;;;;10.93;8.27;;;27.30;55.40;;;;;;6141232;28;81255;-66
2021/06/26 10:10:49;;;;;;;10.27;8.23;;;27.20;55.10;;;;;;6137615;28;81169;-67
2021/06/26 10:13:50;;;;;;;13.43;8.30;;;27.20;54.90;;;;;;6134337;28;80358;-67
2021/06/26 10:16:51;;;;;;;10.18;7.20;;;27.20;54.90;;;;;;6123822;28;80467;-67
2021/06/26 10:19:52;;;;;;;13.50;7.30;;;27.20;55.40;;;;;;6135983;28;80370;-66
2021/06/26 10:22:52;;;;;;;22.85;13.65;;;27.30;56.40;;;;;;6134771;28;80836;-67
2021/06/26 10:25:53;;;;;;;16.65;11.07;;;27.30;54.90;;;;;;6131973;28;82806;-67
2021/06/26 10:28:59;;;;;;;18.88;10.90;;;27.20;54.60;;;;;;6132012;28;83692;-67
2021/06/26 10:31:59;;;;;;;15.77;9.48;;;27.30;54.50;;;;;;6132042;28;84344;-68
2021/06/26 10:35:00;;;;;;;12.68;8.50;;;27.30;54.80;;;;;;6132474;28;81796;-68
2021/06/26 10:38:00;;;;;;;12.35;7.47;;;27.30;54.60;;;;;;6135145;28;81622;-66
2021/06/26 10:41:01;;;;;;;9.23;6.47;;;27.30;54.10;;;;;;6133845;28;80847;-65
2021/06/26 10:44:05;;;;;;;8.85;6.82;;;27.30;54.10;;;;;;6133826;28;80417;-67
2021/06/26 10:47:05;;;;;;;13.10;6.90;;;27.30;54.20;;;;;;6135158;28;80471;-66
2021/06/26 10:50:06;;;;;;;13.77;7.20;;;27.30;54.10;;;;;;6135459;28;81706;-65
2021/06/26 10:53:06;;;;;;;14.20;7.13;;;27.30;54.80;;;;;;6136350;28;80804;-66
2021/06/26 10:56:07;;;;;;;11.00;7.78;;;27.30;55.10;;;;;;6134764;28;81709;-67
2021/06/26 10:59:07;;;;;;;13.15;7.70;;;27.30;54.90;;;;;;6133350;28;80364;-67
2021/06/26 11:02:08;;;;;;;12.43;8.65;;;27.30;54.90;;;;;;6129783;28;81768;-67
2021/06/26 11:05:08;;;;;;;13.70;9.50;;;27.20;55.00;;;;;;6131527;28;80398;-66
2021/06/26 11:08:09;;;;;;;11.95;8.68;;;27.10;55.20;;;;;;6133870;28;80456;-67
2021/06/26 11:11:09;;;;;;;12.13;8.77;;;27.10;55.10;;;;;;6137036;28;80611;-67
2021/06/26 11:14:10;;;;;;;13.23;7.82;;;27.00;55.10;;;;;;6132248;28;82228;-66
2021/06/26 11:17:10;;;;;;;10.38;8.07;;;27.00;55.50;;;;;;6133592;28;80884;-66
2021/06/26 11:20:11;;;;;;;13.20;9.57;;;27.00;56.10;;;;;;6132234;28;81472;-67
2021/06/26 11:23:11;;;;;;;15.45;8.85;;;27.00;56.20;;;;;;6137774;28;80565;-66
2021/06/26 11:26:12;;;;;;;13.07;8.55;;;27.00;56.20;;;;;;6135826;28;81519;-66
2021/06/26 11:29:12;;;;;;;14.82;9.52;;;27.00;56.50;;;;;;6133111;28;80388;-67
2021/06/26 11:32:13;;;;;;;14.52;9.15;;;27.00;56.30;;;;;;6122706;28;81595;-66
2021/06/26 11:35:15;;;;;;;14.68;8.55;;;27.00;56.20;;;;;;6130275;28;80369;-67
2021/06/26 11:38:15;;;;;;;14.02;9.00;;;26.90;56.20;;;;;;6131329;28;80826;-64
2021/06/26 11:41:16;;;;;;;11.88;8.20;;;26.90;56.90;;;;;;6132815;28;80885;-68
2021/06/26 11:44:17;;;;;;;15.80;7.78;;;26.90;56.90;;;;;;6135123;28;81579;-67
2021/06/26 11:47:17;;;;;;;11.27;7.78;;;26.90;57.00;;;;;;6133484;28;80544;-67
2021/06/26 11:50:18;;;;;;;11.57;7.78;;;26.90;57.60;;;;;;6128772;28;81415;-67
2021/06/26 11:53:18;;;;;;;11.27;6.78;;;26.70;56.90;;;;;;6132380;28;83241;-67
2021/06/26 11:56:19;;;;;;;10.75;7.70;;;26.70;57.00;;;;;;6132386;28;82660;-67
2021/06/26 11:59:21;;;;;;;9.50;7.07;;;26.80;56.90;;;;;;6126504;28;80632;-68
2021/06/26 12:02:22;;;;;;;8.38;6.93;;;26.80;57.30;;;;;;6133265;28;80417;-68
2021/06/26 12:05:23;;;;;;;13.55;6.38;;;26.60;57.60;;;;;;6134291;28;80914;-68
2021/06/26 12:08:23;;;;;;;10.20;7.38;;;26.70;57.60;;;;;;6134733;28;80611;-67
2021/06/26 12:11:24;;;;;;;8.73;6.60;;;26.80;57.50;;;;;;6132435;28;80618;-67
2021/06/26 12:14:24;;;;;;;11.77;6.40;;;26.90;57.70;;;;;;6130293;28;82093;-65
2021/06/26 12:17:25;;;;;;;7.70;6.20;;;26.90;57.70;;;;;;6130735;28;81374;-67
2021/06/26 12:20:26;;;;;;;9.73;5.85;;;26.90;58.00;;;;;;6132808;28;80441;-67
2021/06/26 12:23:26;;;;;;;11.93;5.85;;;26.90;58.00;;;;;;6159530;28;82719;-67
2021/06/26 12:26:27;;;;;;;10.73;6.70;;;27.00;57.90;;;;;;6131078;28;81626;-67
2021/06/26 12:29:27;;;;;;;8.93;5.75;;;27.00;57.80;;;;;;6131335;28;80288;-66
2021/06/26 12:32:28;;;;;;;9.70;6.20;;;27.10;58.10;;;;;;6130799;28;81071;-65
2021/06/26 12:35:29;;;;;;;7.50;6.05;;;27.10;57.70;;;;;;6132897;28;80121;-66
2021/06/26 12:38:29;;;;;;;9.60;7.43;;;27.10;56.70;;;;;;6132165;28;80598;-65
2021/06/26 12:41:30;;;;;;;10.80;7.82;;;27.20;56.50;;;;;;6134004;28;80727;-68
2021/06/26 12:44:31;;;;;;;10.32;7.63;;;27.10;56.30;;;;;;6163326;28;81468;-67
2021/06/26 12:47:31;;;;;;;9.45;7.40;;;27.10;56.00;;;;;;6133855;28;86282;-67
2021/06/26 12:50:35;;;;;;;9.40;7.15;;;27.20;56.10;;;;;;6130571;28;80322;-66
2021/06/26 12:53:35;;;;;;;9.18;7.45;;;27.20;56.00;;;;;;6131761;28;80636;-71
2021/06/26 12:56:37;;;;;;;8.07;5.88;;;27.20;55.30;;;;;;6130418;28;80717;-69
2021/06/26 12:59:37;;;;;;;7.53;5.90;;;27.20;54.80;;;;;;6125480;28;81469;-69
2021/06/26 13:02:39;;;;;;;7.38;6.07;;;27.10;54.20;;;;;;6126949;28;80380;-69
2021/06/26 13:05:39;;;;;;;8.05;6.00;;;27.20;54.00;;;;;;6127245;28;81040;-68
2021/06/26 13:08:40;;;;;;;5.55;4.82;;;27.20;54.10;;;;;;6133487;28;81415;-68
2021/06/26 13:11:41;;;;;;;6.55;5.07;;;27.10;53.90;;;;;;6127942;28;82080;-69
2021/06/26 13:14:42;;;;;;;9.15;5.00;;;27.20;53.90;;;;;;6132388;28;80898;-69
2021/06/26 13:17:43;;;;;;;8.27;5.82;;;27.20;54.10;;;;;;6115833;28;82958;-69
2021/06/26 13:20:43;;;;;;;7.80;5.50;;;27.20;54.20;;;;;;6131672;28;80866;-68
2021/06/26 13:23:44;;;;;;;5.50;5.00;;;27.30;54.10;;;;;;6135587;28;81776;-67
2021/06/26 13:26:45;;;;;;;6.85;5.13;;;27.30;54.10;;;;;;6138488;28;80969;-68
2021/06/26 13:29:45;;;;;;;6.82;5.22;;;27.30;54.10;;;;;;6135838;28;81588;-67
2021/06/26 13:32:46;;;;;;;7.07;5.15;;;27.30;53.90;;;;;;6136926;28;81311;-69
2021/06/26 13:35:47;;;;;;;7.68;5.60;;;27.30;54.40;;;;;;6136942;28;80403;-68
2021/06/26 13:38:47;;;;;;;6.00;4.90;;;27.30;53.90;;;;;;6135157;28;81713;-68
2021/06/26 13:41:48;;;;;;;6.55;4.50;;;27.30;53.90;;;;;;6133959;28;80666;-68
2021/06/26 13:44:50;;;;;;;7.05;4.50;;;27.30;54.00;;;;;;6135243;28;81521;-68
2021/06/26 13:47:50;;;;;;;5.78;4.40;;;27.30;54.10;;;;;;6126689;28;81487;-68
2021/06/26 13:50:51;;;;;;;7.28;4.57;;;27.30;54.10;;;;;;6135165;28;82409;-65
2021/06/26 13:53:52;;;;;;;4.88;4.38;;;27.30;53.70;;;;;;6132688;28;81637;-65
2021/06/26 13:56:52;;;;;;;9.05;4.63;;;27.30;53.90;;;;;;6124952;28;81714;-73
2021/06/26 13:59:53;;;;;;;8.55;4.57;;;27.30;54.10;;;;;;6133421;28;80244;-69
2021/06/26 14:02:53;;;;;;;9.85;5.20;;;27.30;54.00;;;;;;6129994;28;81566;-66
2021/06/26 14:05:54;;;;;;;9.93;4.30;;;27.20;54.10;;;;;;6134067;28;80590;-67
2021/06/26 14:08:55;;;;;;;5.90;4.72;;;27.20;54.20;;;;;;6134698;28;81813;-67
2021/06/26 14:11:56;;;;;;;8.40;5.03;;;27.30;54.40;;;;;;6134906;28;80847;-69
2021/06/26 14:14:56;;;;;;;8.65;5.05;;;27.30;54.50;;;;;;6121474;28;83346;-67
2021/06/26 14:17:57;;;;;;;8.07;4.45;;;27.30;54.70;;;;;;6127365;28;81071;-69
2021/06/26 14:20:57;;;;;;;5.97;4.28;;;27.30;54.70;;;;;;6133945;28;80676;-67
2021/06/26 14:23:58;;;;;;;11.85;5.35;;;27.20;54.70;;;;;;6132554;28;80345;-66
2021/06/26 14:26:58;;;;;;;6.57;4.63;;;27.20;54.90;;;;;;6133888;28;80803;-69
2021/06/26 14:29:59;;;;;;;8.43;4.40;;;27.20;55.20;;;;;;6133322;28;80484;-69
2021/06/26 14:32:59;;;;;;;6.85;4.38;;;27.20;55.10;;;;;;6132281;28;81058;-68
2021/06/26 14:36:00;;;;;;;6.07;4.25;;;27.30;55.20;;;;;;6131392;28;80551;-69
2021/06/26 14:39:01;;;;;;;8.18;5.07;;;27.30;56.10;;;;;;6128101;28;80686;-68
2021/06/26 14:42:02;;;;;;;4.95;4.45;;;27.30;55.60;;;;;;6131714;28;80410;-68
2021/06/26 14:45:02;;;;;;;5.38;4.30;;;27.30;55.60;;;;;;6134581;28;80719;-68
2021/06/26 14:48:03;;;;;;;5.50;5.00;;;27.30;55.70;;;;;;6128291;28;80308;-68
2021/06/26 14:51:03;;;;;;;8.18;4.78;;;27.30;55.80;;;;;;6128214;28;83477;-69
2021/06/26 14:54:04;;;;;;;5.18;4.68;;;27.20;56.10;;;;;;6131203;28;81198;-69
2021/06/26 14:57:04;;;;;;;5.22;4.57;;;27.30;56.30;;;;;;6127821;28;80443;-69
2021/06/26 15:00:05;;;;;;;6.15;4.90;;;27.30;56.30;;;;;;6129303;28;80321;-67
2021/06/26 15:03:05;;;;;;;7.88;5.25;;;27.30;56.00;;;;;;6127916;28;80416;-70
2021/06/26 15:06:06;;;;;;;7.07;5.32;;;27.30;56.30;;;;;;6132681;28;80592;-67
2021/06/26 15:09:06;;;;;;;6.85;4.65;;;27.30;56.00;;;;;;6134219;28;87041;-68
2021/06/26 15:12:07;;;;;;;8.15;4.60;;;27.30;56.30;;;;;;6134467;28;81470;-71
2021/06/26 15:15:07;;;;;;;15.93;5.05;;;27.30;56.50;;;;;;6114245;28;81153;-70
2021/06/26 15:18:08;;;;;;;7.63;5.68;;;27.30;56.40;;;;;;6122456;28;81476;-68
2021/06/26 15:21:10;;;;;;;12.15;5.10;;;27.30;57.20;;;;;;6122458;28;80356;-68
2021/06/26 15:24:10;;;;;;;6.68;4.68;;;27.30;57.10;;;;;;6123997;28;80810;-69
2021/06/26 15:27:11;;;;;;;6.65;4.93;;;27.30;57.10;;;;;;6130903;28;80514;-68
2021/06/26 15:30:11;;;;;;;9.32;5.43;;;27.30;57.10;;;;;;6128908;28;80463;-68
2021/06/26 15:33:12;;;;;;;6.60;4.55;;;27.30;57.30;;;;;;6135933;28;80226;-66